Bodoquena, Brazil
Current Conditions -  °F | °C
As of 6:00 PM on Wednesday 17 Dec 2014 (Local Time) from SBCR Reporting Station
Scattered Clouds Scattered Clouds  
Wind Chill: 86°   Ceiling: Unl
Heat Index: 95°   Visibility: 6mi
Dew Point: 75°   Wind: 1mph
Humidity: 70%   Direction: 260°W
Pressure: 29.71"   Gusts: NA
Location:  20.54°S, 56.71°W
Report Text: SBCR 172100Z 26001KT 9999 SCT020 SCT100 30/24 Q1006
Loading
Personal Weather Stations






























Interactive Weather Map New forecast layout! Learn more

10-Day Weather Forecast

Advertisements
Track Severe Weather on mobile